Time;durP1;ratioP1;P1;durP2;ratioP2;P2;SDS_P1;SDS_P2;PMS_P1;PMS_P2;Temp;Humidity;BMP_temperature;BMP_pressure;BME280_temperature;BME280_humidity;BME280_pressure;Samples;Min_cycle;Max_cycle;Signal;HPM_P1;HPM_P2
2023/01/02 00:01:51;;;;;;;14.00;6.20;;;12.30;99.90;;;;;;4941425;28;40199;-79
2023/01/02 00:04:17;;;;;;;22.60;7.22;;;12.30;99.90;;;;;;4956396;28;39006;-80
2023/01/02 00:06:44;;;;;;;16.92;7.47;;;12.30;99.90;;;;;;4947653;28;40110;-80
2023/01/02 00:09:11;;;;;;;22.98;7.65;;;12.30;99.90;;;;;;4945230;28;36100;-80
2023/01/02 00:11:37;;;;;;;19.25;7.43;;;12.30;99.90;;;;;;4964355;28;39335;-79
2023/01/02 00:14:03;;;;;;;18.40;7.35;;;12.30;99.90;;;;;;4950439;28;39431;-80
2023/01/02 00:16:29;;;;;;;13.50;7.18;;;12.30;99.90;;;;;;4950545;28;37442;-79
2023/01/02 00:18:55;;;;;;;13.15;7.03;;;12.30;99.90;;;;;;4946377;28;36049;-79
2023/01/02 00:21:21;;;;;;;18.80;6.68;;;12.30;99.90;;;;;;4960989;28;39092;-80
2023/01/02 00:23:47;;;;;;;15.52;7.57;;;12.40;99.90;;;;;;4956457;28;39248;-79
2023/01/02 00:26:13;;;;;;;16.10;8.23;;;12.30;99.90;;;;;;4936078;28;39180;-79
2023/01/02 00:28:41;;;;;;;16.20;8.00;;;12.40;99.90;;;;;;4938840;28;36017;-79
2023/01/02 00:31:09;;;;;;;20.70;7.85;;;12.30;99.90;;;;;;4961363;28;39717;-78
2023/01/02 00:33:36;;;;;;;16.95;8.20;;;12.40;99.90;;;;;;4960813;28;39416;-79
2023/01/02 00:36:11;;;;;;;14.82;6.97;;;12.30;99.90;;;;;;4954706;28;38743;-79
2023/01/02 00:38:39;;;;;;;13.77;6.55;;;12.40;99.90;;;;;;4943297;28;37926;-80
2023/01/02 00:41:06;;;;;;;14.73;7.55;;;12.40;99.90;;;;;;4936748;28;38082;-80
2023/01/02 00:43:32;;;;;;;19.33;6.05;;;12.30;99.90;;;;;;4961356;28;39586;-80
2023/01/02 00:45:58;;;;;;;12.85;7.07;;;12.30;99.90;;;;;;4963205;28;38859;-80
2023/01/02 00:48:24;;;;;;;13.55;7.10;;;12.30;99.90;;;;;;4958671;28;37806;-80
2023/01/02 00:50:51;;;;;;;17.48;7.20;;;12.40;99.90;;;;;;4943647;28;37601;-81
2023/01/02 00:53:17;;;;;;;15.95;7.43;;;12.40;99.90;;;;;;4960877;28;38752;-80
2023/01/02 00:55:45;;;;;;;16.33;6.60;;;12.40;99.90;;;;;;4943473;28;39358;-80
2023/01/02 00:58:13;;;;;;;15.15;6.90;;;12.40;99.90;;;;;;4937960;28;38838;-81
2023/01/02 01:00:39;;;;;;;14.52;7.15;;;12.40;99.90;;;;;;4943622;28;39098;-81
2023/01/02 01:03:05;;;;;;;17.17;7.10;;;12.40;99.90;;;;;;4957907;28;39576;-81
2023/01/02 01:05:31;;;;;;;18.83;7.80;;;12.30;99.90;;;;;;4941393;28;39489;-79
2023/01/02 01:07:57;;;;;;;12.45;6.63;;;12.40;99.90;;;;;;4944607;28;37726;-79
2023/01/02 01:10:25;;;;;;;15.43;6.63;;;12.40;99.90;;;;;;4957891;28;40109;-79
2023/01/02 01:12:51;;;;;;;15.40;6.95;;;12.40;99.90;;;;;;4951651;28;38903;-78
2023/01/02 01:15:17;;;;;;;17.42;7.72;;;12.40;99.90;;;;;;4937895;28;39260;-80
2023/01/02 01:17:43;;;;;;;17.70;7.47;;;12.40;99.90;;;;;;4937104;28;37007;-79
2023/01/02 01:20:10;;;;;;;15.32;7.50;;;12.40;99.90;;;;;;4953429;28;39096;-79
2023/01/02 01:22:37;;;;;;;14.07;6.70;;;12.40;99.90;;;;;;4939379;28;39561;-79
2023/01/02 01:25:03;;;;;;;14.13;7.30;;;12.40;99.90;;;;;;4936809;28;38792;-79
2023/01/02 01:27:29;;;;;;;16.55;7.30;;;12.40;99.90;;;;;;4940656;28;38668;-79
2023/01/02 01:29:55;;;;;;;16.73;8.35;;;12.40;99.90;;;;;;4935138;28;37253;-79
2023/01/02 01:32:21;;;;;;;13.93;7.00;;;12.40;99.90;;;;;;4951043;28;39966;-80
2023/01/02 01:34:47;;;;;;;12.82;7.30;;;12.40;99.90;;;;;;4946002;28;39647;-79
2023/01/02 01:37:15;;;;;;;14.35;6.78;;;12.40;99.90;;;;;;4962829;28;37741;-80
2023/01/02 01:39:41;;;;;;;19.08;8.07;;;12.40;99.90;;;;;;4938768;28;38680;-79
2023/01/02 01:42:12;;;;;;;18.83;7.72;;;12.40;99.90;;;;;;4943925;28;37714;-80
2023/01/02 01:44:51;;;;;;;11.20;7.70;;;12.40;99.90;;;;;;4958602;28;39662;-79
2023/01/02 01:47:22;;;;;;;14.40;7.40;;;12.30;99.90;;;;;;4953360;28;39062;-79
2023/01/02 01:49:53;;;;;;;14.75;7.50;;;12.30;99.90;;;;;;4940996;28;40583;-80
2023/01/02 01:52:23;;;;;;;15.80;8.23;;;12.30;99.90;;;;;;4932769;28;39391;-80
2023/01/02 01:55:00;;;;;;;19.50;8.68;;;12.30;99.90;;;;;;4933258;28;38845;-79
2023/01/02 01:57:35;;;;;;;18.35;8.95;;;12.30;99.90;;;;;;4951293;28;38076;-80
2023/01/02 02:00:02;;;;;;;15.77;8.45;;;12.30;99.90;;;;;;4943796;28;38912;-80
2023/01/02 03:15:56;;;;;;;19.05;7.78;;;12.80;99.90;;;;;;6037988;23;20019;-82
2023/01/02 03:19:03;;;;;;;18.90;7.65;;;12.80;99.90;;;;;;4915846;28;36992;-81
2023/01/02 06:01:05;;;;;;;15.00;7.47;;;10.60;99.90;;;;;;6038828;23;20027;31
2023/01/02 08:31:32;;;;;;;11.33;1.10;;;9.80;99.90;;;;;;6039279;23;20023;31
2023/01/02 08:36:45;;;;;;;4.97;0.97;;;9.80;99.90;;;;;;5940988;23;20018;-81
2023/01/02 08:50:20;;;;;;;5.27;0.77;;;9.80;99.90;;;;;;4917430;28;38848;-81
2023/01/02 08:58:09;;;;;;;8.57;1.17;;;9.90;99.90;;;;;;5524972;23;20027;-82
2023/01/02 09:03:11;;;;;;;4.63;1.03;;;9.90;99.90;;;;;;5016801;23;19931;-81
2023/01/02 09:16:04;;;;;;;7.93;0.93;;;9.90;99.90;;;;;;5533525;23;20032;-82
2023/01/02 09:18:43;;;;;;;10.00;1.23;;;9.80;99.90;;;;;;5060826;23;48579;-81
2023/01/02 09:21:20;;;;;;;9.90;1.00;;;9.80;99.90;;;;;;4936550;28;38016;-81
2023/01/02 09:23:46;;;;;;;8.17;1.17;;;9.80;99.90;;;;;;4935673;28;38724;-81
2023/01/02 09:26:14;;;;;;;6.43;1.17;;;9.80;99.90;;;;;;4945381;28;36681;-82
2023/01/02 09:28:43;;;;;;;10.70;1.77;;;9.80;99.90;;;;;;4935077;28;39230;-82
2023/01/02 09:31:14;;;;;;;6.23;1.27;;;9.80;99.90;;;;;;4935392;28;37873;-82
2023/01/02 10:10:11;;;;;;;10.82;1.50;;;9.90;99.90;;;;;;6033153;23;20018;-81
2023/01/02 10:12:52;;;;;;;11.70;1.27;;;10.00;99.90;;;;;;4934943;28;47634;-81
2023/01/02 10:15:25;;;;;;;10.10;1.50;;;10.10;99.90;;;;;;4925853;29;39478;-81
2023/01/02 10:18:17;;;;;;;10.27;1.67;;;10.20;99.90;;;;;;4936659;28;40568;-82
2023/01/02 10:20:51;;;;;;;5.77;1.07;;;10.30;99.90;;;;;;5445410;23;50029;-81
2023/01/02 10:23:24;;;;;;;8.97;1.47;;;10.30;99.90;;;;;;4945246;28;38709;-78
2023/01/02 10:25:53;;;;;;;11.97;1.90;;;10.40;99.90;;;;;;4953385;28;37683;-81
2023/01/02 10:29:00;;;;;;;7.27;1.40;;;10.40;99.90;;;;;;4964167;28;39927;-81
2023/01/02 10:31:52;;;;;;;10.70;2.00;;;10.40;99.90;;;;;;4970001;28;38744;-81
2023/01/02 10:34:42;;;;;;;10.85;2.22;;;10.40;99.90;;;;;;4946252;28;40813;-84
2023/01/02 10:39:48;;;;;;;12.23;1.30;;;10.30;99.90;;;;;;5367367;23;20222;-81
2023/01/02 10:44:50;;;;;;;10.87;1.53;;;10.30;99.90;;;;;;5292637;23;20053;-80
2023/01/02 10:47:22;;;;;;;10.27;2.17;;;10.30;99.90;;;;;;5083506;23;40010;-81
2023/01/02 10:49:54;;;;;;;6.10;1.90;;;10.30;99.90;;;;;;4951420;28;37603;-82
2023/01/02 10:55:10;;;;;;;14.43;2.07;;;10.30;99.90;;;;;;5882739;23;20222;-82
2023/01/02 11:00:18;;;;;;;13.77;3.00;;;10.40;99.90;;;;;;5055895;23;20075;-83
2023/01/02 11:02:54;;;;;;;11.10;3.35;;;10.40;99.90;;;;;;4954972;28;50281;-81
2023/01/02 11:05:23;;;;;;;17.10;4.80;;;10.50;99.90;;;;;;4935933;29;38002;-81
2023/01/02 11:07:53;;;;;;;12.13;3.80;;;10.50;99.90;;;;;;4954317;28;39962;-81
2023/01/02 11:10:31;;;;;;;17.40;3.87;;;10.60;99.90;;;;;;4959613;28;38021;-81
2023/01/02 11:16:03;;;;;;;16.93;4.30;;;10.70;99.90;;;;;;5256810;23;20052;-83
2023/01/02 11:18:32;;;;;;;14.07;3.77;;;10.70;99.90;;;;;;4927176;29;48222;-82
2023/01/02 11:21:50;;;;;;;14.37;4.20;;;10.70;99.90;;;;;;4924578;29;38049;-83
2023/01/02 11:25:02;;;;;;;13.53;4.40;;;10.70;99.90;;;;;;4915541;29;49750;-82
2023/01/02 11:36:56;;;;;;;8.23;3.70;;;10.70;99.90;;;;;;6047980;23;20153;31
2023/01/02 11:46:14;;;;;;;13.47;4.03;;;10.80;99.90;;;;;;4910312;29;39520;-82
2023/01/02 14:49:47;;;;;;;6.70;1.97;;;10.50;99.90;;;;;;6040010;23;20027;31
2023/01/02 14:52:29;;;;;;;4.60;2.50;;;10.50;99.90;;;;;;5622113;23;38110;-81
2023/01/02 14:57:49;;;;;;;6.30;2.30;;;10.40;99.90;;;;;;5164796;23;20032;-81
2023/01/02 15:03:31;;;;;;;8.80;2.10;;;10.30;99.90;;;;;;5427446;23;20052;-80
2023/01/02 15:08:41;;;;;;;7.97;2.27;;;10.40;99.90;;;;;;5786460;23;20044;-81
2023/01/02 15:16:23;;;;;;;4.60;1.07;;;10.00;99.90;;;;;;5033355;23;20037;-81
2023/01/02 15:21:21;;;;;;;2.63;1.10;;;9.80;99.90;;;;;;4933611;28;20792;-81
2023/01/02 15:23:51;;;;;;;7.67;1.60;;;9.80;99.90;;;;;;4918527;29;36165;-81
2023/01/02 15:26:32;;;;;;;4.63;1.17;;;9.70;99.90;;;;;;4956993;28;39352;-81
2023/01/02 15:29:00;;;;;;;5.93;1.17;;;9.70;99.90;;;;;;4939376;29;38159;-81
2023/01/02 15:34:11;;;;;;;10.50;1.80;;;9.60;99.90;;;;;;5136001;23;20040;-83
2023/01/02 15:47:28;;;;;;;9.63;2.87;;;9.60;99.90;;;;;;5144732;23;20046;-81
2023/01/02 15:49:56;;;;;;;12.93;3.40;;;9.60;99.90;;;;;;4954517;28;40424;-80
2023/01/02 15:52:28;;;;;;;14.43;3.50;;;9.60;99.90;;;;;;4936836;28;37858;-81
2023/01/02 15:54:55;;;;;;;13.68;3.88;;;9.70;99.90;;;;;;4942816;28;38015;-81
2023/01/02 15:57:27;;;;;;;15.20;3.97;;;9.60;99.90;;;;;;4948438;28;38894;-80
2023/01/02 15:59:54;;;;;;;15.43;4.28;;;9.70;99.90;;;;;;4927013;29;37642;-81
2023/01/02 16:02:40;;;;;;;13.50;3.10;;;9.60;99.90;;;;;;4926950;29;37441;-82
2023/01/02 16:19:42;;;;;;;11.47;4.80;;;9.50;99.90;;;;;;5859666;23;22532;-81
2023/01/02 16:22:26;;;;;;;19.50;4.33;;;9.40;99.90;;;;;;4952866;28;40048;-80
2023/01/02 16:25:06;;;;;;;14.20;4.60;;;9.30;99.90;;;;;;4940558;28;38492;-81
2023/01/02 16:27:40;;;;;;;13.70;5.30;;;9.30;99.90;;;;;;4965246;28;49356;-81
2023/01/02 16:30:28;;;;;;;11.93;4.80;;;9.30;99.90;;;;;;4943504;28;37887;-81
2023/01/02 16:32:55;;;;;;;13.10;5.10;;;9.20;99.90;;;;;;4954635;28;38000;-81
2023/01/02 16:35:31;;;;;;;11.43;3.60;;;9.10;99.90;;;;;;4961900;28;39989;-80
2023/01/02 16:38:04;;;;;;;12.47;4.60;;;9.10;99.90;;;;;;4942092;28;35520;-80
2023/01/02 16:40:47;;;;;;;15.77;4.43;;;9.00;99.90;;;;;;4934940;28;47713;-82
2023/01/02 16:43:17;;;;;;;9.73;4.20;;;8.90;99.90;;;;;;4952141;28;38683;-80
2023/01/02 16:45:46;;;;;;;11.97;4.43;;;8.80;99.90;;;;;;4936484;28;37967;-81
2023/01/02 16:48:15;;;;;;;17.13;4.80;;;8.90;99.90;;;;;;4948036;28;35394;-81
2023/01/02 16:50:43;;;;;;;13.60;4.97;;;8.90;99.90;;;;;;4960799;28;39951;-80
2023/01/02 16:53:30;;;;;;;11.87;3.67;;;8.90;99.90;;;;;;4969350;28;38600;-82
2023/01/02 16:56:03;;;;;;;14.77;3.90;;;8.80;99.90;;;;;;4963757;28;38925;-81
2023/01/02 16:58:46;;;;;;;18.43;4.00;;;8.90;99.90;;;;;;4907501;29;48823;-82
2023/01/02 17:01:21;;;;;;;11.40;4.55;;;8.90;99.90;;;;;;4942008;28;39350;-82
2023/01/02 17:03:57;;;;;;;19.33;5.20;;;8.90;99.90;;;;;;4957811;28;39682;-81
2023/01/02 17:06:27;;;;;;;16.13;7.00;;;8.90;99.90;;;;;;4943518;28;37497;-82
2023/01/02 17:09:07;;;;;;;16.17;6.17;;;8.80;99.90;;;;;;4958699;28;38750;-82
2023/01/02 17:17:10;;;;;;;15.53;5.73;;;8.60;99.90;;;;;;5678036;23;20071;-80
2023/01/02 17:19:45;;;;;;;16.17;4.93;;;8.50;99.90;;;;;;4975851;28;38652;-81
2023/01/02 17:22:13;;;;;;;9.30;4.70;;;8.40;99.90;;;;;;4971898;28;37884;-81
2023/01/02 17:24:44;;;;;;;18.30;5.37;;;8.30;99.90;;;;;;4959128;28;38564;-81
2023/01/02 17:27:11;;;;;;;12.03;4.60;;;8.30;99.90;;;;;;4949537;28;37943;-80
2023/01/02 17:29:37;;;;;;;16.30;4.93;;;8.30;99.90;;;;;;4957712;28;36662;-81
2023/01/02 17:32:03;;;;;;;12.00;5.13;;;8.20;99.90;;;;;;4942303;28;38139;-80
2023/01/02 17:34:44;;;;;;;15.73;6.07;;;8.20;99.90;;;;;;4951532;28;38034;-82
2023/01/02 17:37:15;;;;;;;9.40;5.97;;;8.20;99.90;;;;;;4979642;28;38915;-80
2023/01/02 17:39:42;;;;;;;15.00;6.83;;;8.10;99.90;;;;;;4960273;28;36533;-80
2023/01/02 17:42:12;;;;;;;13.93;6.20;;;8.00;99.90;;;;;;4966331;28;40325;-79
2023/01/02 17:44:42;;;;;;;15.37;6.03;;;8.10;99.90;;;;;;4957901;28;38442;-80
2023/01/02 17:47:10;;;;;;;18.43;7.07;;;8.00;99.90;;;;;;4956040;28;39021;-78
2023/01/02 17:49:41;;;;;;;18.90;7.70;;;7.90;99.90;;;;;;4947927;28;37418;-79
2023/01/02 17:52:09;;;;;;;16.57;8.03;;;7.90;99.90;;;;;;4969479;28;39181;-78
2023/01/02 17:54:35;;;;;;;21.53;8.80;;;7.80;99.90;;;;;;4950426;28;37822;-79
2023/01/02 17:57:01;;;;;;;21.00;9.03;;;7.80;99.90;;;;;;4969500;28;40035;-80
2023/01/02 17:59:27;;;;;;;22.57;9.40;;;7.80;99.90;;;;;;4944836;28;47425;-81
2023/01/02 18:01:53;;;;;;;19.03;7.87;;;7.70;99.90;;;;;;4955681;28;38874;-81
2023/01/02 18:04:20;;;;;;;18.97;8.10;;;7.70;99.90;;;;;;4965633;28;39393;-80
2023/01/02 18:06:46;;;;;;;14.80;8.70;;;7.70;99.90;;;;;;4955869;28;38444;-77
2023/01/02 18:09:12;;;;;;;16.13;6.97;;;7.70;99.90;;;;;;4926191;28;37106;-78
2023/01/02 18:11:38;;;;;;;20.87;7.87;;;7.70;99.90;;;;;;4926915;28;39037;-78
2023/01/02 18:14:17;;;;;;;17.60;7.77;;;7.60;99.90;;;;;;4952402;28;38901;-77
2023/01/02 18:16:44;;;;;;;19.63;7.10;;;7.70;99.90;;;;;;4946790;28;37360;-80
2023/01/02 18:19:16;;;;;;;15.10;7.07;;;7.60;99.90;;;;;;4977271;28;37631;-79
2023/01/02 18:21:43;;;;;;;13.93;6.63;;;7.60;99.90;;;;;;4958435;28;37933;-79
2023/01/02 18:24:22;;;;;;;18.27;7.37;;;7.60;99.90;;;;;;4953657;28;38842;-79
2023/01/02 18:26:56;;;;;;;18.27;8.50;;;7.70;99.90;;;;;;4977569;28;38854;-79
2023/01/02 18:29:25;;;;;;;16.57;6.73;;;7.60;99.90;;;;;;4977747;28;37557;-80
2023/01/02 18:31:53;;;;;;;18.17;8.77;;;7.60;99.90;;;;;;4963753;28;38901;-81
2023/01/02 18:34:27;;;;;;;13.43;7.73;;;7.70;99.90;;;;;;4980699;28;40410;-81
2023/01/02 18:37:01;;;;;;;13.67;7.20;;;7.70;99.90;;;;;;4962893;28;39976;-80
2023/01/02 18:39:34;;;;;;;14.27;7.10;;;7.60;99.90;;;;;;4973481;28;48027;-79
2023/01/02 18:42:17;;;;;;;21.98;7.13;;;7.60;99.90;;;;;;4976403;28;39140;-79
2023/01/02 18:44:43;;;;;;;15.13;7.22;;;7.50;99.90;;;;;;4980034;28;49322;-80
2023/01/02 18:47:31;;;;;;;14.10;7.90;;;7.50;99.90;;;;;;4956762;28;36839;-79
2023/01/02 18:50:29;;;;;;;15.80;7.77;;;7.40;99.90;;;;;;4953653;28;35859;-78
2023/01/02 18:52:55;;;;;;;15.73;7.43;;;7.40;99.90;;;;;;4954463;28;46980;-80
2023/01/02 18:55:29;;;;;;;15.40;7.73;;;7.40;99.90;;;;;;4962986;28;39497;-79
2023/01/02 18:58:00;;;;;;;16.90;7.33;;;7.50;99.90;;;;;;4960585;28;37506;-82
2023/01/02 19:00:33;;;;;;;18.47;8.63;;;7.50;99.90;;;;;;4976051;28;39120;-81
2023/01/02 19:03:13;;;;;;;17.37;7.60;;;7.50;99.90;;;;;;4973269;23;40230;-82
2023/01/02 19:05:45;;;;;;;16.47;8.73;;;7.40;99.90;;;;;;4918040;29;47437;-80
2023/01/02 19:08:18;;;;;;;;;;;7.40;99.90;;;;;;4922056;29;39544;-80
2023/01/02 19:10:52;;;;;;;14.37;7.23;;;7.40;99.90;;;;;;4938731;29;37039;-81
2023/01/02 19:13:24;;;;;;;19.37;7.90;;;7.40;99.90;;;;;;4939193;28;40279;-82
2023/01/02 19:15:57;;;;;;;16.00;7.97;;;7.40;99.90;;;;;;4919736;29;39169;-81
2023/01/02 19:18:37;;;;;;;19.17;8.43;;;7.40;99.90;;;;;;4944399;28;37922;-82
2023/01/02 19:21:34;;;;;;;15.33;8.37;;;7.30;99.90;;;;;;4923551;28;37179;-80
2023/01/02 19:24:08;;;;;;;15.33;8.23;;;7.40;99.90;;;;;;4936217;28;39319;-80
2023/01/02 19:26:40;;;;;;;15.87;8.17;;;7.40;99.90;;;;;;4914979;29;49571;-81
2023/01/02 19:29:09;;;;;;;13.83;7.23;;;7.30;99.90;;;;;;4914865;29;38468;-81
2023/01/02 19:31:42;;;;;;;13.17;6.80;;;7.30;99.90;;;;;;4939835;29;35998;-80
2023/01/02 19:34:42;;;;;;;11.47;7.33;;;7.20;99.90;;;;;;4933925;29;40268;-82
2023/01/02 19:37:15;;;;;;;17.63;7.93;;;7.30;99.90;;;;;;4936638;28;38904;-80
2023/01/02 19:40:12;;;;;;;19.63;10.25;;;7.20;99.90;;;;;;4930516;28;40378;-80
2023/01/02 19:42:40;;;;;;;19.30;11.07;;;7.10;99.90;;;;;;4941387;28;48750;-78
2023/01/02 19:45:08;;;;;;;19.20;10.27;;;7.00;99.90;;;;;;4914504;28;38702;-80
2023/01/02 19:47:36;;;;;;;19.03;10.13;;;6.90;99.90;;;;;;4902131;28;47965;-79
2023/01/02 19:50:12;;;;;;;19.47;8.33;;;6.80;99.90;;;;;;4915799;29;37658;-79
2023/01/02 19:52:39;;;;;;;11.80;7.43;;;6.80;99.90;;;;;;4906725;29;47663;-79
2023/01/02 19:55:06;;;;;;;14.73;7.37;;;6.80;99.90;;;;;;4916967;28;37750;-79
2023/01/02 19:57:34;;;;;;;12.10;7.07;;;6.90;99.90;;;;;;4912245;29;48496;-80
2023/01/02 20:00:11;;;;;;;14.63;7.53;;;6.90;99.90;;;;;;4920130;29;38749;-80
2023/01/02 20:02:39;;;;;;;15.00;8.57;;;6.90;99.90;;;;;;4912562;29;36901;-81
2023/01/02 20:05:05;;;;;;;12.47;8.70;;;6.90;99.90;;;;;;4916449;29;38340;-79
2023/01/02 20:07:32;;;;;;;13.50;8.97;;;6.90;99.90;;;;;;4914367;29;38025;-79
2023/01/02 20:09:58;;;;;;;17.73;9.53;;;6.90;99.90;;;;;;4913225;29;37808;-79
2023/01/02 20:12:32;;;;;;;23.70;10.63;;;6.90;99.90;;;;;;4913705;29;36492;-79
2023/01/02 20:15:13;;;;;;;19.97;10.80;;;6.80;99.90;;;;;;4914491;29;39721;-77
2023/01/02 20:17:40;;;;;;;17.87;11.27;;;6.80;99.90;;;;;;4922794;29;49111;-79
2023/01/02 20:20:09;;;;;;;18.93;11.07;;;6.70;99.90;;;;;;4923852;29;39492;-78
2023/01/02 20:22:35;;;;;;;18.23;10.63;;;6.60;99.90;;;;;;4902017;28;38498;-77
2023/01/02 20:25:02;;;;;;;15.93;9.87;;;6.50;99.90;;;;;;4906592;29;37855;-77
2023/01/02 20:27:28;;;;;;;19.90;11.20;;;6.50;99.90;;;;;;4901615;28;37610;-78
2023/01/02 20:29:57;;;;;;;14.77;10.23;;;6.50;99.90;;;;;;4923013;29;38444;-78
2023/01/02 20:32:23;;;;;;;19.23;11.60;;;6.50;99.90;;;;;;4906756;29;36430;-79
2023/01/02 20:34:50;;;;;;;15.33;10.03;;;6.50;99.90;;;;;;4900537;29;38343;-80
2023/01/02 20:37:20;;;;;;;21.63;11.67;;;6.60;99.90;;;;;;4909501;29;38351;-80
2023/01/02 20:39:48;;;;;;;25.20;12.50;;;6.50;99.90;;;;;;4920852;29;39735;-79
2023/01/02 20:42:15;;;;;;;21.40;12.23;;;6.50;99.90;;;;;;4934615;28;36781;-80
2023/01/02 20:44:42;;;;;;;19.37;11.63;;;6.50;99.90;;;;;;4920658;29;39629;-80
2023/01/02 20:47:08;;;;;;;17.00;10.97;;;6.50;99.90;;;;;;4923218;29;39344;-79
2023/01/02 20:49:34;;;;;;;19.67;10.83;;;6.50;99.90;;;;;;4922815;29;40732;-79
2023/01/02 20:52:02;;;;;;;25.00;11.83;;;6.50;99.90;;;;;;4924131;29;38883;-79
2023/01/02 20:54:28;;;;;;;21.30;12.33;;;6.50;99.90;;;;;;4904532;29;47207;-79
2023/01/02 20:56:55;;;;;;;15.93;10.23;;;6.40;99.90;;;;;;4920529;29;36391;-79
2023/01/02 20:59:22;;;;;;;19.27;11.20;;;6.40;99.90;;;;;;4926354;29;36850;-80
2023/01/02 21:01:49;;;;;;;14.47;8.97;;;6.30;99.90;;;;;;4925059;29;37787;-79
2023/01/02 21:04:15;;;;;;;13.23;8.03;;;6.30;99.90;;;;;;4909973;29;38893;-79
2023/01/02 21:06:41;;;;;;;13.80;8.03;;;6.30;99.90;;;;;;4907952;29;38882;-79
2023/01/02 21:09:08;;;;;;;16.33;8.17;;;6.20;99.90;;;;;;4906446;29;36764;-79
2023/01/02 21:11:34;;;;;;;22.07;10.40;;;6.30;99.90;;;;;;4927964;29;37781;-80
2023/01/02 21:14:01;;;;;;;20.57;12.10;;;6.40;99.90;;;;;;4928732;29;39331;-79
2023/01/02 21:16:28;;;;;;;17.17;10.53;;;6.40;99.90;;;;;;4913042;29;47054;-80
2023/01/02 21:18:58;;;;;;;19.10;10.80;;;6.30;99.90;;;;;;4921020;28;39530;-80
2023/01/02 21:21:27;;;;;;;20.60;12.67;;;6.30;99.90;;;;;;4940007;29;36798;-79
2023/01/02 21:23:53;;;;;;;17.90;10.57;;;6.20;99.90;;;;;;4926428;28;39096;-79
2023/01/02 21:26:20;;;;;;;18.13;12.60;;;6.10;99.90;;;;;;4915183;29;37639;-79
2023/01/02 21:28:48;;;;;;;17.83;10.97;;;5.90;99.90;;;;;;4906989;29;39093;-79
2023/01/02 21:31:26;;;;;;;17.07;11.23;;;5.80;99.90;;;;;;4919712;29;36813;-79
2023/01/02 21:33:52;;;;;;;20.53;11.77;;;5.70;99.90;;;;;;4905314;29;39593;-80
2023/01/02 21:36:18;;;;;;;17.67;11.23;;;5.60;99.90;;;;;;4908920;29;37805;-80
2023/01/02 21:38:44;;;;;;;18.50;11.20;;;5.50;99.90;;;;;;4916545;29;37694;-80
2023/01/02 21:43:56;;;;;;;25.37;12.60;;;5.40;99.90;;;;;;4914526;28;40177;-81
2023/01/02 21:46:22;;;;;;;24.80;13.37;;;5.30;99.90;;;;;;4922061;29;38002;-81
2023/01/02 21:48:49;;;;;;;20.80;13.40;;;5.30;99.90;;;;;;4935762;29;38817;-82
2023/01/02 21:51:21;;;;;;;19.10;13.27;;;5.30;99.90;;;;;;4946954;29;38638;-81
2023/01/02 21:53:57;;;;;;;22.58;13.40;;;5.20;99.90;;;;;;4929825;28;39589;-82
2023/01/02 21:56:26;;;;;;;16.93;12.40;;;5.10;99.90;;;;;;4917742;29;37262;-82
2023/01/02 21:58:53;;;;;;;21.97;12.00;;;5.20;99.90;;;;;;4914541;29;38699;-81
2023/01/02 22:01:19;;;;;;;26.73;13.00;;;5.30;99.90;;;;;;4916456;29;36388;-81
2023/01/02 22:03:45;;;;;;;21.47;13.03;;;5.40;99.90;;;;;;4935399;29;38700;-83
2023/01/02 22:06:11;;;;;;;20.33;13.43;;;5.50;99.90;;;;;;4941546;28;37449;-80
2023/01/02 22:08:41;;;;;;;20.63;12.03;;;5.70;99.90;;;;;;4923940;29;37241;-83
2023/01/02 22:13:51;;;;;;;18.77;13.10;;;5.90;99.90;;;;;;4935787;29;39781;-80
2023/01/02 22:16:18;;;;;;;17.67;11.37;;;6.00;99.90;;;;;;4919067;29;37325;-80
2023/01/02 22:18:44;;;;;;;20.63;11.83;;;6.10;99.90;;;;;;4937070;29;41338;-81
2023/01/02 22:21:10;;;;;;;21.37;12.30;;;6.10;99.90;;;;;;4917046;29;36322;-79
2023/01/02 22:23:36;;;;;;;19.53;11.00;;;6.10;99.90;;;;;;4934109;29;39930;-80
2023/01/02 22:26:02;;;;;;;21.47;11.17;;;6.10;99.90;;;;;;4928933;29;38829;-77
2023/01/02 22:28:41;;;;;;;21.00;9.60;;;6.00;99.90;;;;;;4937370;28;40056;-80
2023/01/02 22:31:10;;;;;;;19.20;10.17;;;6.00;99.90;;;;;;4945032;29;37260;-81
2023/01/02 22:33:36;;;;;;;20.60;10.60;;;6.00;99.90;;;;;;4933101;29;39287;-80
2023/01/02 22:36:03;;;;;;;16.20;9.93;;;5.90;99.90;;;;;;4932942;29;39128;-81
2023/01/02 22:38:29;;;;;;;12.63;9.40;;;5.90;99.90;;;;;;4922225;29;47150;-81
2023/01/02 22:40:55;;;;;;;15.77;10.30;;;5.90;99.90;;;;;;4939931;29;37533;-80
2023/01/02 22:43:21;;;;;;;16.53;10.57;;;5.90;99.90;;;;;;4934109;29;39960;-81
2023/01/02 22:45:52;;;;;;;16.97;10.43;;;6.00;99.90;;;;;;4905322;29;37484;-80
2023/01/02 22:48:36;;;;;;;20.03;11.07;;;5.90;99.90;;;;;;4921992;29;39275;-82
2023/01/02 22:51:05;;;;;;;17.40;10.23;;;5.70;99.90;;;;;;4918005;29;39910;-78
2023/01/02 22:53:35;;;;;;;17.23;11.47;;;5.60;99.90;;;;;;4943356;29;40074;-81
2023/01/02 22:56:14;;;;;;;16.67;11.20;;;5.50;99.90;;;;;;4939152;29;40433;-81
2023/01/02 22:58:40;;;;;;;17.60;10.40;;;5.40;99.90;;;;;;4915298;29;47446;-81
2023/01/02 23:01:16;;;;;;;20.50;11.53;;;5.30;99.90;;;;;;4926504;29;37555;-80
2023/01/02 23:03:44;;;;;;;17.17;10.33;;;5.30;99.90;;;;;;4899731;29;38233;-81
2023/01/02 23:06:12;;;;;;;18.43;11.80;;;5.30;99.90;;;;;;4923871;29;38847;-80
2023/01/02 23:08:38;;;;;;;17.83;10.47;;;5.30;99.90;;;;;;4910572;29;37580;-79
2023/01/02 23:11:05;;;;;;;13.17;9.63;;;5.20;99.90;;;;;;4935712;29;38962;-79
2023/01/02 23:13:33;;;;;;;27.20;12.50;;;5.10;99.90;;;;;;4927022;29;40347;-81
2023/01/02 23:21:34;;;;;;;14.67;10.27;;;4.90;99.90;;;;;;4937875;29;50726;-81
2023/01/02 23:24:00;;;;;;;15.57;10.40;;;4.80;99.90;;;;;;4924517;29;39088;-81
2023/01/02 23:26:51;;;;;;;15.70;10.27;;;4.80;99.90;;;;;;4920865;29;39406;-81
2023/01/02 23:29:19;;;;;;;15.97;11.07;;;4.80;99.90;;;;;;4920263;29;38007;-81
2023/01/02 23:31:49;;;;;;;19.83;11.83;;;4.80;99.90;;;;;;4922189;29;36720;-80
2023/01/02 23:34:21;;;;;;;17.67;11.03;;;5.00;99.90;;;;;;4921341;29;38005;-80
2023/01/02 23:36:53;;;;;;;14.32;9.63;;;5.10;99.90;;;;;;4924490;29;38051;-81
2023/01/02 23:39:30;;;;;;;13.67;8.47;;;5.20;99.90;;;;;;4932315;28;39655;-81
2023/01/02 23:42:00;;;;;;;14.63;10.20;;;5.20;99.90;;;;;;4932852;29;37941;-81
2023/01/02 23:44:27;;;;;;;13.43;8.80;;;5.20;99.90;;;;;;4953192;29;37675;-80
2023/01/02 23:46:57;;;;;;;16.50;9.17;;;5.10;99.90;;;;;;4935697;29;39160;-83
2023/01/02 23:49:25;;;;;;;16.13;8.93;;;5.00;99.90;;;;;;4932386;28;39569;-81
2023/01/02 23:51:52;;;;;;;14.90;9.17;;;5.00;99.90;;;;;;4936725;29;38651;-82
2023/01/02 23:54:19;;;;;;;12.70;8.97;;;5.10;99.90;;;;;;4933737;29;39716;-81
2023/01/02 23:56:47;;;;;;;20.17;9.50;;;5.00;99.90;;;;;;4931205;29;40142;-81
2023/01/02 23:59:21;;;;;;;19.17;10.23;;;5.00;99.90;;;;;;4934465;29;39996;-81
